createdAt,value
2023-04-15T00:02:55.770Z,0.30
2023-04-15T00:06:01.963Z,0.20
2023-04-15T00:09:04.632Z,0.30
2023-04-15T00:12:08.288Z,0.20
2023-04-15T00:15:12.700Z,0.37
2023-04-15T00:18:15.310Z,0.20
2023-04-15T00:21:17.489Z,0.20
2023-04-15T00:24:19.620Z,0.20
2023-04-15T00:27:21.896Z,0.30
2023-04-15T00:30:26.666Z,0.30
2023-04-15T00:33:31.509Z,0.30
2023-04-15T00:36:35.300Z,0.30
2023-04-15T00:39:37.605Z,0.20
2023-04-15T00:42:42.709Z,0.33
2023-04-15T00:45:45.027Z,0.20
2023-04-15T00:48:47.840Z,0.30
2023-04-15T00:51:50.059Z,0.20
2023-04-15T00:54:53.287Z,0.30
2023-04-15T00:57:56.557Z,0.20
2023-04-15T01:00:59.404Z,0.20
2023-04-15T01:04:02.646Z,0.33
2023-04-15T01:07:05.223Z,0.20
2023-04-15T01:10:08.511Z,0.20
2023-04-15T01:13:13.917Z,0.60
2023-04-15T01:16:17.282Z,0.50
2023-04-15T01:19:21.545Z,0.30
2023-04-15T01:22:26.946Z,0.30
2023-04-15T01:25:33.630Z,0.40
2023-04-15T01:28:37.847Z,0.30
2023-04-15T01:31:40.584Z,0.20
2023-04-15T01:34:43.085Z,0.20
2023-04-15T01:37:45.709Z,0.20
2023-04-15T01:40:48.363Z,0.30
2023-04-15T01:43:50.480Z,0.30
2023-04-15T01:46:52.956Z,0.30
2023-04-15T01:49:56.306Z,0.20
2023-04-15T01:52:58.714Z,0.23
2023-04-15T01:56:02.525Z,0.17
2023-04-15T01:59:04.781Z,0.20
2023-04-15T02:02:07.177Z,0.30
2023-04-15T02:05:09.849Z,0.30
2023-04-15T02:08:12.909Z,0.40
2023-04-15T02:11:17.814Z,0.40
2023-04-15T02:14:20.256Z,0.60
2023-04-15T02:17:23.517Z,0.40
2023-04-15T02:20:26.001Z,0.30
2023-04-15T02:23:28.344Z,0.40
2023-04-15T02:26:32.973Z,0.40
2023-04-15T02:29:35.325Z,0.40
2023-04-15T02:32:38.533Z,0.50
2023-04-15T02:35:44.668Z,0.30
2023-04-15T02:38:47.123Z,0.37
2023-04-15T02:41:53.545Z,0.30
2023-04-15T02:44:59.884Z,0.40
2023-04-15T02:48:07.064Z,0.40
2023-04-15T02:51:20.253Z,0.73
2023-04-15T02:54:23.569Z,0.30
2023-04-15T02:57:26.511Z,0.20
2023-04-15T03:00:30.905Z,0.43
2023-04-15T03:03:33.724Z,0.30
2023-04-15T03:06:38.726Z,0.40
2023-04-15T03:09:49.055Z,0.40
2023-04-15T03:12:51.607Z,0.30
2023-04-15T03:15:56.843Z,0.40
2023-04-15T03:19:01.665Z,0.33
2023-04-15T03:22:04.996Z,0.47
2023-04-15T03:25:08.185Z,0.57
2023-04-15T03:28:10.859Z,0.30
2023-04-15T03:31:13.727Z,0.40
2023-04-15T03:34:16.413Z,0.47
2023-04-15T03:37:18.776Z,0.40
2023-04-15T03:40:41.679Z,0.40
2023-04-15T03:43:45.684Z,0.40
2023-04-15T03:46:48.450Z,0.40
2023-04-15T03:49:51.010Z,0.30
2023-04-15T03:52:53.477Z,0.43
2023-04-15T03:55:56.349Z,0.43
2023-04-15T03:59:01.665Z,0.30
2023-04-15T04:02:07.642Z,0.50
2023-04-15T04:05:10.275Z,0.40
2023-04-15T04:08:16.650Z,0.40
2023-04-15T04:11:19.169Z,0.50
2023-04-15T04:14:21.892Z,0.40
2023-04-15T04:17:24.464Z,0.40
2023-04-15T04:20:26.876Z,0.40
2023-04-15T04:23:29.368Z,0.83
2023-04-15T04:26:34.768Z,0.40
2023-04-15T04:29:37.119Z,0.60
2023-04-15T04:32:39.522Z,0.53
2023-04-15T04:35:44.302Z,0.50
2023-04-15T04:38:46.680Z,0.60
2023-04-15T04:41:49.036Z,0.30
2023-04-15T04:44:52.933Z,0.40
2023-04-15T04:47:55.708Z,0.40
2023-04-15T04:50:58.305Z,0.77
2023-04-15T04:54:08.906Z,0.63
2023-04-15T04:57:13.912Z,0.37
2023-04-15T05:00:19.653Z,0.50
2023-04-15T05:03:25.206Z,0.50
2023-04-15T05:06:28.108Z,0.40
2023-04-15T05:09:32.670Z,0.40
2023-04-15T05:12:36.034Z,0.30
2023-04-15T05:15:40.065Z,0.40
2023-04-15T05:18:42.699Z,0.30
2023-04-15T05:21:45.056Z,0.50
2023-04-15T05:24:47.406Z,0.70
2023-04-15T05:27:52.404Z,0.30
2023-04-15T05:30:57.080Z,0.30
2023-04-15T05:33:59.607Z,0.50
2023-04-15T05:37:01.886Z,0.30
2023-04-15T05:40:04.834Z,0.50
2023-04-15T05:43:07.167Z,0.50
2023-04-15T05:46:09.777Z,0.47
2023-04-15T05:49:14.735Z,0.67
2023-04-15T05:52:19.802Z,0.50
2023-04-15T05:55:22.454Z,0.43
2023-04-15T05:58:24.711Z,0.60
2023-04-15T06:01:27.068Z,0.40
2023-04-15T06:04:29.512Z,0.60
2023-04-15T06:07:32.013Z,0.70
2023-04-15T06:10:37.029Z,0.60
2023-04-15T06:13:39.282Z,1.00
2023-04-15T06:16:41.640Z,0.80
2023-04-15T06:19:43.706Z,0.60
2023-04-15T06:22:45.742Z,0.73
2023-04-15T06:25:47.727Z,0.80
2023-04-15T06:28:51.445Z,0.60
2023-04-15T06:31:53.679Z,0.40
2023-04-15T06:34:55.866Z,0.33
2023-04-15T06:37:58.085Z,0.50
2023-04-15T06:41:01.085Z,0.40
2023-04-15T06:44:08.945Z,0.30
2023-04-15T06:47:14.205Z,0.30
2023-04-15T06:50:18.303Z,0.50
2023-04-15T06:53:22.076Z,0.40
2023-04-15T06:56:25.142Z,0.60
2023-04-15T06:59:28.820Z,0.40
2023-04-15T07:02:37.703Z,0.30
2023-04-15T07:05:42.109Z,0.40
2023-04-15T07:08:51.029Z,0.60
2023-04-15T07:11:58.466Z,0.60
2023-04-15T07:15:11.479Z,0.50
2023-04-15T07:18:16.978Z,0.80
2023-04-15T07:21:21.506Z,0.60
2023-04-15T07:24:30.437Z,0.60
2023-04-15T07:27:50.406Z,0.70
2023-04-15T07:30:58.012Z,0.50
2023-04-15T07:34:06.064Z,0.70
2023-04-15T07:37:17.993Z,0.77
2023-04-15T07:40:42.178Z,0.70
2023-04-15T07:44:11.672Z,1.03
2023-04-15T07:47:40.876Z,1.00
2023-04-15T07:50:58.922Z,0.67
2023-04-15T07:54:21.504Z,1.00
2023-04-15T07:57:51.425Z,1.00
2023-04-15T08:01:13.207Z,1.30
2023-04-15T08:04:39.527Z,0.90
2023-04-15T08:08:14.998Z,1.27
2023-04-15T08:11:27.440Z,1.30
2023-04-15T08:14:52.148Z,1.50
2023-04-15T08:17:58.185Z,1.40
2023-04-15T08:21:00.319Z,1.33
2023-04-15T08:24:03.433Z,1.50
2023-04-15T08:27:05.951Z,1.60
2023-04-15T08:30:08.699Z,1.60
2023-04-15T08:33:10.768Z,1.27
2023-04-15T08:36:14.112Z,1.50
2023-04-15T08:39:16.262Z,1.30
2023-04-15T08:42:22.065Z,1.73
2023-04-15T08:45:24.237Z,1.57
2023-04-15T08:48:29.873Z,1.60
2023-04-15T08:51:33.934Z,1.60
2023-04-15T08:54:36.917Z,1.53
2023-04-15T08:57:40.046Z,1.80
2023-04-15T09:00:42.253Z,1.40
2023-04-15T09:03:44.559Z,1.33
2023-04-15T09:06:47.487Z,1.70
2023-04-15T09:09:49.736Z,1.53
2023-04-15T09:12:52.078Z,1.77
2023-04-15T09:15:54.163Z,1.70
2023-04-15T09:18:56.368Z,1.70
2023-04-15T09:21:59.778Z,1.70
2023-04-15T09:25:01.941Z,1.47
2023-04-15T09:28:04.558Z,1.40
2023-04-15T09:31:06.679Z,1.40
2023-04-15T09:34:08.820Z,1.50
2023-04-15T09:37:11.431Z,1.20
2023-04-15T09:40:13.986Z,1.27
2023-04-15T09:43:17.720Z,1.50
2023-04-15T09:46:20.357Z,1.00
2023-04-15T09:49:22.395Z,1.30
2023-04-15T09:52:24.456Z,0.90
2023-04-15T09:55:26.840Z,1.00
2023-04-15T09:58:31.420Z,0.80
2023-04-15T10:01:33.720Z,0.97
2023-04-15T10:04:40.089Z,1.27
2023-04-15T10:07:43.010Z,0.90
2023-04-15T10:10:46.979Z,1.20
2023-04-15T10:13:50.770Z,1.03
2023-04-15T10:16:56.702Z,0.80
2023-04-15T10:20:01.442Z,1.13
2023-04-15T10:23:03.930Z,0.93
2023-04-15T10:26:07.305Z,0.50
2023-04-15T10:29:10.710Z,0.60
2023-04-15T10:32:14.042Z,0.60
2023-04-15T10:35:18.535Z,0.80
2023-04-15T10:38:34.178Z,0.97
2023-04-15T10:41:36.557Z,0.60
2023-04-15T10:44:43.362Z,0.60
2023-04-15T10:47:45.752Z,0.77
2023-04-15T10:50:59.366Z,0.40
2023-04-15T10:54:01.754Z,0.30
2023-04-15T10:57:06.950Z,0.40
2023-04-15T11:00:13.292Z,0.37
2023-04-15T11:03:16.079Z,0.30
2023-04-15T11:06:18.429Z,0.30
2023-04-15T11:09:38.057Z,0.40
2023-04-15T11:12:42.211Z,0.37
2023-04-15T11:15:48.862Z,0.27
2023-04-15T11:18:56.182Z,0.27
2023-04-15T11:21:58.243Z,0.40
2023-04-15T11:25:00.243Z,0.37
2023-04-15T11:28:02.848Z,0.30
2023-04-15T11:31:13.920Z,0.43
2023-04-15T11:34:23.280Z,0.40
2023-04-15T11:37:30.200Z,0.30
2023-04-15T11:40:36.046Z,0.40
2023-04-15T11:43:39.134Z,0.30
2023-04-15T11:46:41.356Z,0.40
2023-04-15T11:49:43.622Z,0.50
2023-04-15T11:53:01.771Z,0.50
2023-04-15T11:56:03.992Z,0.50
2023-04-15T11:59:05.985Z,0.40
2023-04-15T12:02:14.522Z,0.40
2023-04-15T12:05:17.062Z,0.30
2023-04-15T12:08:19.115Z,0.30
2023-04-15T12:11:27.873Z,0.10
2023-04-15T12:14:33.898Z,0.43
2023-04-15T12:17:51.368Z,0.43
2023-04-15T12:20:54.803Z,0.70
2023-04-15T12:23:58.593Z,0.40
2023-04-15T12:27:05.320Z,0.20
2023-04-15T12:30:08.314Z,0.20
2023-04-15T12:33:10.725Z,0.10
2023-04-15T12:36:13.674Z,0.10
2023-04-15T12:39:16.063Z,0.27
2023-04-15T12:42:19.122Z,0.10
2023-04-15T12:45:21.716Z,0.20
2023-04-15T12:48:23.716Z,0.10
2023-04-15T12:51:26.619Z,0.20
2023-04-15T12:54:29.721Z,0.10
2023-04-15T12:57:31.756Z,0.20
2023-04-15T13:03:56.569Z,0.10
2023-04-15T13:06:58.783Z,0.17
2023-04-15T13:10:00.847Z,0.10
2023-04-15T13:13:03.721Z,0.20
2023-04-15T13:16:06.522Z,0.40
2023-04-15T13:19:08.784Z,0.20
2023-04-15T13:22:11.727Z,0.20
2023-04-15T13:25:13.833Z,0.10
2023-04-15T13:28:15.980Z,0.10
2023-04-15T13:31:18.035Z,0.10
2023-04-15T13:34:20.106Z,0.17
2023-04-15T13:37:28.189Z,0.20
2023-04-15T13:40:31.227Z,0.20
2023-04-15T13:43:34.518Z,0.20
2023-04-15T13:46:38.089Z,0.10
2023-04-15T13:49:40.216Z,0.20
2023-04-15T13:52:42.414Z,0.20
2023-04-15T13:55:44.472Z,0.17
2023-04-15T13:58:46.467Z,0.10
2023-04-15T14:01:48.739Z,0.20
2023-04-15T14:04:51.396Z,0.30
2023-04-15T14:07:53.800Z,0.10
2023-04-15T14:10:55.956Z,0.10
2023-04-15T14:13:58.065Z,0.10
2023-04-15T14:17:00.297Z,1.00
2023-04-15T14:20:02.461Z,0.13
2023-04-15T14:23:04.518Z,0.17
2023-04-15T14:26:06.728Z,0.10
2023-04-15T14:29:08.688Z,0.10
2023-04-15T14:32:12.789Z,0.10
2023-04-15T14:35:15.135Z,0.10
2023-04-15T14:38:17.294Z,0.20
2023-04-15T14:41:19.289Z,0.10
2023-04-15T14:44:21.610Z,0.23
2023-04-15T14:47:24.477Z,0.20
2023-04-15T14:50:27.139Z,0.20
2023-04-15T14:53:29.209Z,0.10
2023-04-15T14:56:31.727Z,0.20
2023-04-15T14:59:33.889Z,0.10
2023-04-15T15:02:39.663Z,0.10
2023-04-15T15:05:45.224Z,0.20
2023-04-15T15:08:47.730Z,0.20
2023-04-15T15:11:50.453Z,0.20
2023-04-15T15:14:52.655Z,0.30
2023-04-15T15:17:54.899Z,0.20
2023-04-15T15:20:57.247Z,0.10
2023-04-15T15:23:59.373Z,0.17
2023-04-15T15:27:02.315Z,0.17
2023-04-15T15:30:04.649Z,0.20
2023-04-15T15:33:06.737Z,0.20
2023-04-15T15:36:10.939Z,0.37
2023-04-15T15:39:12.990Z,0.13
2023-04-15T15:42:15.025Z,0.10
2023-04-15T15:45:17.851Z,0.20
2023-04-15T15:48:20.011Z,0.10
2023-04-15T15:51:22.210Z,0.10
2023-04-15T15:54:25.115Z,0.17
2023-04-15T15:57:30.383Z,0.20
2023-04-15T16:00:32.684Z,0.20
2023-04-15T16:03:34.839Z,0.10
2023-04-15T16:06:36.946Z,0.20
2023-04-15T16:09:41.548Z,0.10
2023-04-15T16:12:43.719Z,0.10
2023-04-15T16:15:46.241Z,0.10
2023-04-15T16:18:48.291Z,0.20
2023-04-15T16:21:50.756Z,0.10
2023-04-15T16:24:53.910Z,0.20
2023-04-15T16:28:03.490Z,0.20
2023-04-15T16:31:13.821Z,0.10
2023-04-15T16:34:16.393Z,0.20
2023-04-15T16:37:18.398Z,0.10
2023-04-15T16:40:20.468Z,0.20
2023-04-15T16:43:22.582Z,0.30
2023-04-15T16:46:24.867Z,0.30
2023-04-15T16:49:26.954Z,0.20
2023-04-15T16:52:29.396Z,0.30
2023-04-15T16:55:32.062Z,0.10
2023-04-15T16:58:34.332Z,0.20
2023-04-15T17:01:37.049Z,0.27
2023-04-15T17:04:40.680Z,0.17
2023-04-15T17:07:43.280Z,0.13
2023-04-15T17:10:45.755Z,0.20
2023-04-15T17:13:47.925Z,0.20
2023-04-15T17:16:50.249Z,0.27
2023-04-15T17:19:52.501Z,0.20
2023-04-15T17:22:55.093Z,0.20
2023-04-15T17:25:57.324Z,0.20
2023-04-15T17:28:59.686Z,0.27
2023-04-15T17:32:04.269Z,0.30
2023-04-15T17:35:07.593Z,0.30
2023-04-15T17:38:09.829Z,0.20
2023-04-15T17:41:12.591Z,0.20
2023-04-15T17:44:15.229Z,0.17
2023-04-15T17:47:17.787Z,0.10
2023-04-15T17:50:20.988Z,0.10
2023-04-15T17:53:23.549Z,0.10
2023-04-15T17:56:28.504Z,0.20
2023-04-15T17:59:32.227Z,0.20
2023-04-15T18:04:14.952Z,0.20
2023-04-15T18:07:17.744Z,0.20
2023-04-15T18:10:21.184Z,0.10
2023-04-15T18:13:24.012Z,0.20
2023-04-15T18:16:27.765Z,0.20
2023-04-15T18:19:32.997Z,0.20
2023-04-15T18:22:35.760Z,0.10
2023-04-15T18:25:39.362Z,0.10
2023-04-15T18:28:42.368Z,0.20
2023-04-15T18:31:45.459Z,0.20
2023-04-15T18:34:48.088Z,0.20
2023-04-15T18:37:53.851Z,0.20
2023-04-15T18:40:56.716Z,0.80
2023-04-15T18:43:59.740Z,0.70
2023-04-15T18:47:03.275Z,0.40
2023-04-15T18:50:07.259Z,0.50
2023-04-15T18:53:09.854Z,0.50
2023-04-15T18:56:26.826Z,0.47
2023-04-15T18:59:30.702Z,0.50
2023-04-15T19:02:34.138Z,3.60
2023-04-15T19:05:37.920Z,1.63
2023-04-15T19:08:41.070Z,1.13
2023-04-15T19:11:48.756Z,1.33
2023-04-15T19:14:51.385Z,1.00
2023-04-15T19:17:54.462Z,0.57
2023-04-15T19:21:00.735Z,0.40
2023-04-15T19:24:03.890Z,0.50
2023-04-15T19:27:06.955Z,0.30
2023-04-15T19:30:15.086Z,0.30
2023-04-15T19:33:18.121Z,0.40
2023-04-15T19:36:21.999Z,0.50
2023-04-15T19:39:25.251Z,0.83
2023-04-15T19:42:28.481Z,0.60
2023-04-15T19:45:32.279Z,0.40
2023-04-15T19:48:35.122Z,0.80
2023-04-15T19:51:37.332Z,0.70
2023-04-15T19:54:40.193Z,1.20
2023-04-15T19:57:42.832Z,1.27
2023-04-15T20:00:45.840Z,0.60
2023-04-15T20:03:49.655Z,0.50
2023-04-15T20:06:53.431Z,2.80
2023-04-15T20:09:57.806Z,0.97
2023-04-15T20:13:00.616Z,0.80
2023-04-15T20:16:03.708Z,0.60
2023-04-15T20:19:09.933Z,0.50
2023-04-15T20:22:12.546Z,0.57
2023-04-15T20:25:15.903Z,0.40
2023-04-15T20:28:19.960Z,0.50
2023-04-15T20:31:23.345Z,0.47
2023-04-15T20:34:26.424Z,0.70
2023-04-15T20:37:30.604Z,0.70
2023-04-15T20:40:35.958Z,0.80
2023-04-15T20:43:39.092Z,0.70
2023-04-15T20:46:41.844Z,0.60
2023-04-15T20:49:44.011Z,0.40
2023-04-15T20:52:48.220Z,0.50
2023-04-15T20:55:50.672Z,0.50
2023-04-15T20:58:53.676Z,0.40
2023-04-15T21:01:57.453Z,0.37
2023-04-15T21:04:59.953Z,0.87
2023-04-15T21:08:02.166Z,0.60
2023-04-15T21:11:04.478Z,1.30
2023-04-15T21:14:08.626Z,0.80
2023-04-15T21:17:11.623Z,0.50
2023-04-15T21:20:13.836Z,0.60
2023-04-15T21:23:15.960Z,0.40
2023-04-15T21:26:18.504Z,0.30
2023-04-15T21:29:20.750Z,0.53
2023-04-15T21:32:22.982Z,0.70
2023-04-15T21:35:25.192Z,0.40
2023-04-15T21:38:27.439Z,0.40
2023-04-15T21:41:29.862Z,0.30
2023-04-15T21:44:31.872Z,0.30
2023-04-15T21:47:59.395Z,0.40
2023-04-15T21:51:00.409Z,0.30
2023-04-15T21:54:02.721Z,0.27
2023-04-15T21:57:04.809Z,0.20
2023-04-15T22:00:08.709Z,0.30
2023-04-15T22:03:10.815Z,0.47
2023-04-15T22:06:13.905Z,0.33
2023-04-15T22:09:16.228Z,0.30
2023-04-15T22:12:18.351Z,0.37
2023-04-15T22:15:20.392Z,0.30
2023-04-15T22:18:22.380Z,0.30
2023-04-15T22:21:24.466Z,0.43
2023-04-15T22:24:32.544Z,0.40
2023-04-15T22:27:42.032Z,0.30
2023-04-15T22:30:44.083Z,0.40
2023-04-15T22:33:46.091Z,0.20
2023-04-15T22:36:49.246Z,0.30
2023-04-15T22:39:52.050Z,0.40
2023-04-15T22:42:54.155Z,0.30
2023-04-15T22:45:56.876Z,0.30
2023-04-15T22:48:59.043Z,0.50
2023-04-15T22:52:01.195Z,0.50
2023-04-15T22:55:04.061Z,0.40
2023-04-15T22:58:06.236Z,0.60
2023-04-15T23:01:08.516Z,0.50
2023-04-15T23:04:10.993Z,0.40
2023-04-15T23:07:25.543Z,0.70
2023-04-15T23:10:28.490Z,0.50
2023-04-15T23:13:30.633Z,0.40
2023-04-15T23:16:32.893Z,0.60
2023-04-15T23:19:34.992Z,0.60
2023-04-15T23:22:38.005Z,0.40
2023-04-15T23:25:39.907Z,0.57
2023-04-15T23:28:41.957Z,0.40
2023-04-15T23:31:44.008Z,0.50
2023-04-15T23:34:46.122Z,0.70
2023-04-15T23:37:48.232Z,0.50
2023-04-15T23:40:51.584Z,0.60
2023-04-15T23:43:53.603Z,1.20
2023-04-15T23:46:56.033Z,0.70
2023-04-15T23:49:58.108Z,0.40
2023-04-15T23:53:00.284Z,0.40
2023-04-15T23:56:02.359Z,0.40
2023-04-15T23:59:04.504Z,0.80
